Time;durP1;ratioP1;P1;durP2;ratioP2;P2;SDS_P1;SDS_P2;PMS_P1;PMS_P2;Temp;Humidity;BMP_temperature;BMP_pressure;BME280_temperature;BME280_humidity;BME280_pressure;Samples;Min_cycle;Max_cycle;Signal;HPM_P1;HPM_P2
2022/10/31 00:00:50;;;;;;;20.92;12.18;;;12.70;99.90;;;;;;5081814;28;20106;-75
2022/10/31 00:03:17;;;;;;;16.88;11.18;;;12.60;99.90;;;;;;5074562;28;20055;-75
2022/10/31 00:05:45;;;;;;;20.98;11.88;;;12.50;99.90;;;;;;5087678;28;20067;-75
2022/10/31 00:08:10;;;;;;;18.85;10.23;;;12.40;99.90;;;;;;5078066;28;20048;-75
2022/10/31 00:10:43;;;;;;;18.35;10.18;;;12.30;99.90;;;;;;5087401;28;20052;-75
2022/10/31 00:13:10;;;;;;;19.92;12.10;;;12.20;99.90;;;;;;5076052;28;20087;-75
2022/10/31 00:15:38;;;;;;;20.25;11.15;;;12.20;99.90;;;;;;5067024;28;20045;-75
2022/10/31 00:18:05;;;;;;;19.50;10.35;;;12.20;99.90;;;;;;5067385;28;20076;-75
2022/10/31 00:20:31;;;;;;;16.02;9.48;;;12.10;99.90;;;;;;5091292;28;20102;-75
2022/10/31 00:23:01;;;;;;;15.70;9.13;;;12.00;99.90;;;;;;5079802;28;20045;-75
2022/10/31 00:25:28;;;;;;;14.10;8.77;;;11.90;99.90;;;;;;5077112;28;20044;-75
2022/10/31 00:27:54;;;;;;;21.88;10.85;;;11.80;99.90;;;;;;5095110;28;20049;-75
2022/10/31 00:30:19;;;;;;;22.23;11.98;;;11.80;99.90;;;;;;5060628;28;20053;-75
2022/10/31 00:32:45;;;;;;;18.85;10.98;;;11.90;99.90;;;;;;5085736;28;20052;-75
2022/10/31 00:35:11;;;;;;;19.23;11.20;;;12.00;99.90;;;;;;5070185;28;20079;-75
2022/10/31 00:37:37;;;;;;;21.70;12.18;;;11.90;99.90;;;;;;5046412;28;20324;-75
2022/10/31 00:40:03;;;;;;;25.48;13.30;;;11.90;99.90;;;;;;5058076;28;20053;-76
2022/10/31 00:42:28;;;;;;;23.33;12.88;;;12.00;99.90;;;;;;5072216;28;20067;-75
2022/10/31 00:44:54;;;;;;;25.40;13.15;;;12.00;99.90;;;;;;5076551;28;20067;-75
2022/10/31 00:47:21;;;;;;;24.13;14.63;;;12.00;99.90;;;;;;5078732;28;20045;-75
2022/10/31 00:49:46;;;;;;;20.40;12.55;;;12.10;99.90;;;;;;5077413;28;20052;-75
2022/10/31 00:52:12;;;;;;;20.17;12.27;;;12.20;99.90;;;;;;5066319;28;20511;-75
2022/10/31 00:54:38;;;;;;;23.88;12.55;;;12.20;99.90;;;;;;5062587;28;20448;-75
2022/10/31 00:57:03;;;;;;;22.10;14.07;;;12.00;99.90;;;;;;5076417;28;20126;-75
2022/10/31 00:59:29;;;;;;;25.35;16.23;;;12.00;99.90;;;;;;5079885;28;20589;-75
2022/10/31 01:01:55;;;;;;;24.40;14.65;;;12.10;99.90;;;;;;5066111;28;20055;-75
2022/10/31 01:04:20;;;;;;;23.85;15.43;;;12.20;99.90;;;;;;5060491;28;20049;-75
2022/10/31 01:06:46;;;;;;;29.35;15.85;;;12.20;99.90;;;;;;5074788;28;20048;-75
2022/10/31 01:09:12;;;;;;;32.92;15.63;;;12.20;99.90;;;;;;5073429;28;20102;-75
2022/10/31 01:11:37;;;;;;;28.77;18.05;;;12.30;99.90;;;;;;5065271;28;20135;-75
2022/10/31 01:14:03;;;;;;;28.63;17.58;;;12.30;99.90;;;;;;5071245;28;20044;-75
2022/10/31 01:16:31;;;;;;;27.38;15.10;;;12.30;99.90;;;;;;5063828;28;20049;-75
2022/10/31 01:18:57;;;;;;;33.00;17.23;;;12.30;99.90;;;;;;5081514;28;20051;-75
2022/10/31 01:21:26;;;;;;;26.85;15.80;;;12.20;99.90;;;;;;5081210;28;20100;-75
2022/10/31 01:23:54;;;;;;;23.95;16.33;;;12.20;99.90;;;;;;5062353;28;20084;-75
2022/10/31 01:26:25;;;;;;;27.58;16.50;;;12.10;99.90;;;;;;5070633;28;20041;-75
2022/10/31 01:28:59;;;;;;;25.17;15.63;;;12.10;99.90;;;;;;5084344;28;20044;-75
2022/10/31 01:31:27;;;;;;;27.58;15.35;;;12.10;99.90;;;;;;5078985;28;20048;-75
2022/10/31 01:33:54;;;;;;;27.80;17.45;;;12.00;99.90;;;;;;5086132;28;20040;-75
2022/10/31 01:36:32;;;;;;;33.47;17.85;;;12.00;99.90;;;;;;5072962;28;20056;-75
2022/10/31 01:39:00;;;;;;;26.95;16.95;;;12.00;99.90;;;;;;5066523;28;20048;-75
2022/10/31 01:41:29;;;;;;;33.45;18.95;;;12.10;99.90;;;;;;5076675;28;20070;-75
2022/10/31 01:43:58;;;;;;;23.58;16.30;;;12.10;99.90;;;;;;5069416;28;20055;-75
2022/10/31 01:46:29;;;;;;;32.20;17.50;;;12.20;99.90;;;;;;5085747;28;20106;-75
2022/10/31 01:48:57;;;;;;;31.33;18.15;;;12.20;99.90;;;;;;5086853;28;20099;-75
2022/10/31 01:51:27;;;;;;;28.55;17.63;;;12.20;99.90;;;;;;5069165;28;20065;-75
2022/10/31 01:53:57;;;;;;;28.15;18.55;;;12.30;99.90;;;;;;5080395;28;20072;-75
2022/10/31 01:56:24;;;;;;;29.23;18.02;;;12.30;99.90;;;;;;5067986;28;20052;-75
2022/10/31 01:58:51;;;;;;;31.98;17.98;;;12.40;99.90;;;;;;5100863;28;20047;-75
2022/10/31 02:01:17;;;;;;;28.83;17.10;;;12.30;99.90;;;;;;5086583;28;20048;-75
2022/10/31 02:03:45;;;;;;;33.58;18.73;;;12.30;99.90;;;;;;5058933;28;20053;-75
2022/10/31 02:06:21;;;;;;;28.88;17.52;;;12.20;99.90;;;;;;5106814;28;20042;-75
2022/10/31 02:08:47;;;;;;;27.80;18.27;;;12.10;99.90;;;;;;5087647;28;20045;-75
2022/10/31 02:11:13;;;;;;;29.70;18.05;;;12.10;99.90;;;;;;5075687;28;20050;-75
2022/10/31 02:13:39;;;;;;;28.10;18.10;;;12.00;99.90;;;;;;5083068;28;20053;-75
2022/10/31 02:16:05;;;;;;;27.92;18.10;;;12.00;99.90;;;;;;5080461;28;20055;-75
2022/10/31 02:18:31;;;;;;;29.52;17.52;;;11.80;99.90;;;;;;5068872;28;20068;-75
2022/10/31 02:21:11;;;;;;;29.42;19.65;;;11.80;99.90;;;;;;5070334;28;20049;-75
2022/10/31 02:24:00;;;;;;;31.75;20.00;;;11.70;99.90;;;;;;5064550;28;20492;-75
2022/10/31 02:26:49;;;;;;;33.67;19.70;;;11.70;99.90;;;;;;5087200;28;20060;-75
2022/10/31 02:29:37;;;;;;;32.90;20.40;;;11.70;99.90;;;;;;5058547;28;20060;-75
2022/10/31 02:32:23;;;;;;;31.70;20.50;;;11.70;99.90;;;;;;5084080;28;20546;-75
2022/10/31 02:35:07;;;;;;;31.73;20.38;;;11.70;99.90;;;;;;5077710;28;20068;-75
2022/10/31 02:37:57;;;;;;;33.72;20.02;;;11.80;99.90;;;;;;5069670;28;20055;-75
2022/10/31 02:40:33;;;;;;;35.08;20.20;;;11.80;99.90;;;;;;5086723;28;20055;-75
2022/10/31 02:43:25;;;;;;;34.22;18.88;;;11.90;99.90;;;;;;5068193;28;20056;-75
2022/10/31 02:46:02;;;;;;;29.95;18.95;;;11.90;99.90;;;;;;5082578;28;20075;-75
2022/10/31 02:48:31;;;;;;;28.88;18.48;;;11.90;99.90;;;;;;5081629;28;20052;-75
2022/10/31 02:51:02;;;;;;;28.83;17.88;;;11.90;99.90;;;;;;5079721;28;20078;-75
2022/10/31 02:53:33;;;;;;;29.17;17.90;;;11.90;99.90;;;;;;5093275;28;20072;-75
2022/10/31 02:56:08;;;;;;;27.95;18.00;;;11.80;99.90;;;;;;5064907;28;20068;-75
2022/10/31 02:58:38;;;;;;;23.08;15.75;;;11.80;99.90;;;;;;5062409;28;20052;-75
2022/10/31 03:01:19;;;;;;;24.80;15.60;;;11.70;99.90;;;;;;5101366;28;20053;-75
2022/10/31 03:04:16;;;;;;;28.15;17.17;;;11.60;99.90;;;;;;5048875;28;20057;-75
2022/10/31 03:06:49;;;;;;;27.77;17.33;;;11.60;99.90;;;;;;5065620;28;20041;-75
2022/10/31 03:09:44;;;;;;;26.20;17.38;;;11.60;99.90;;;;;;5074971;28;20044;-75
2022/10/31 03:12:39;;;;;;;25.95;17.80;;;11.60;99.90;;;;;;5087846;28;20073;-75
2022/10/31 03:15:30;;;;;;;28.42;17.65;;;11.60;99.90;;;;;;5073253;28;20094;-75
2022/10/31 03:17:56;;;;;;;28.40;16.67;;;11.60;99.90;;;;;;5067761;28;20052;-75
2022/10/31 03:20:28;;;;;;;22.50;15.60;;;11.50;99.90;;;;;;5066141;28;20125;-75
2022/10/31 03:22:56;;;;;;;28.20;16.58;;;11.50;99.90;;;;;;5097566;28;20106;-75
2022/10/31 03:25:22;;;;;;;26.00;17.42;;;11.50;99.90;;;;;;5085692;28;20032;-75
2022/10/31 03:27:51;;;;;;;24.27;15.68;;;11.40;99.90;;;;;;5075645;28;20052;-75
2022/10/31 03:30:17;;;;;;;23.08;15.13;;;11.50;99.90;;;;;;5069661;28;20043;-75
2022/10/31 03:32:55;;;;;;;23.00;16.23;;;11.40;99.90;;;;;;5084955;28;20060;-75
2022/10/31 03:35:24;;;;;;;25.25;17.08;;;11.30;99.90;;;;;;5086213;28;20051;-75
2022/10/31 03:37:52;;;;;;;25.08;16.27;;;11.30;99.90;;;;;;5084204;28;20040;-75
2022/10/31 03:40:21;;;;;;;19.02;13.57;;;11.30;99.90;;;;;;5091657;28;20458;-75
2022/10/31 03:42:53;;;;;;;23.75;15.73;;;11.30;99.90;;;;;;5102475;28;20052;-75
2022/10/31 03:45:26;;;;;;;28.58;15.48;;;11.30;99.90;;;;;;5076580;28;20078;-75
2022/10/31 03:47:53;;;;;;;25.90;18.20;;;11.40;99.90;;;;;;5077167;28;20037;-75
2022/10/31 03:50:21;;;;;;;31.58;18.92;;;11.40;99.90;;;;;;5069966;28;20055;-75
2022/10/31 03:52:58;;;;;;;26.70;16.38;;;11.40;99.90;;;;;;5096632;28;20106;-75
2022/10/31 03:55:33;;;;;;;22.65;15.98;;;11.40;99.90;;;;;;5059289;28;20044;-75
2022/10/31 03:58:17;;;;;;;26.60;17.52;;;11.50;99.90;;;;;;5070524;28;20084;-75
2022/10/31 04:00:45;;;;;;;23.45;16.75;;;11.50;99.90;;;;;;5069585;28;20049;-75
2022/10/31 04:03:36;;;;;;;20.80;13.77;;;11.60;99.90;;;;;;5069239;28;20047;-75
2022/10/31 04:06:09;;;;;;;17.90;12.63;;;11.20;99.90;;;;;;5077884;28;20059;-75
2022/10/31 04:08:41;;;;;;;19.95;12.80;;;10.90;99.90;;;;;;5076930;28;20052;-75
2022/10/31 04:11:08;;;;;;;14.13;11.13;;;10.70;99.90;;;;;;5071240;28;20049;-75
2022/10/31 04:13:37;;;;;;;22.05;13.35;;;10.40;99.90;;;;;;5083240;28;20044;-75
2022/10/31 04:16:03;;;;;;;20.55;14.40;;;10.30;99.90;;;;;;5091742;28;20111;-75
2022/10/31 04:18:28;;;;;;;20.63;12.38;;;10.30;99.90;;;;;;5063054;28;20091;-75
2022/10/31 04:21:03;;;;;;;13.02;8.15;;;10.20;99.90;;;;;;5072353;28;20121;-75
2022/10/31 04:23:29;;;;;;;18.30;9.00;;;10.00;99.90;;;;;;5068930;28;20073;-75
2022/10/31 04:25:55;;;;;;;12.80;8.20;;;9.80;99.90;;;;;;5089375;28;20051;-75
2022/10/31 04:28:20;;;;;;;10.93;8.35;;;9.60;99.90;;;;;;5083578;28;20045;-75
2022/10/31 04:30:46;;;;;;;13.48;7.78;;;9.50;99.90;;;;;;5066174;28;20045;-75
2022/10/31 04:33:12;;;;;;;15.70;8.90;;;9.30;99.90;;;;;;5056855;28;20045;-75
2022/10/31 04:35:37;;;;;;;8.82;7.32;;;9.10;99.90;;;;;;5058782;28;20045;-75
2022/10/31 04:38:03;;;;;;;9.65;6.22;;;8.90;99.90;;;;;;5082448;28;20080;-75
2022/10/31 04:40:29;;;;;;;9.15;5.53;;;8.90;99.90;;;;;;5081629;28;20048;-75
2022/10/31 04:42:54;;;;;;;9.90;7.50;;;9.00;99.90;;;;;;5082836;28;20127;-75
2022/10/31 04:45:20;;;;;;;11.02;7.65;;;9.00;99.90;;;;;;5083477;28;20036;-75
2022/10/31 04:47:46;;;;;;;9.32;7.45;;;9.00;99.90;;;;;;5081241;28;20048;-75
2022/10/31 04:50:12;;;;;;;8.05;6.63;;;9.10;99.90;;;;;;5093965;28;20051;-75
2022/10/31 04:52:42;;;;;;;7.07;5.40;;;9.10;99.90;;;;;;5084554;28;20059;-75
2022/10/31 04:55:08;;;;;;;;;;;9.10;99.90;;;;;;5067285;28;20055;-75
2022/10/31 04:57:41;;;;;;;12.68;5.97;;;9.00;99.90;;;;;;5063017;28;19959;-75
2022/10/31 05:00:08;;;;;;;13.45;6.30;;;8.90;99.90;;;;;;5088356;28;20040;-75
2022/10/31 05:02:33;;;;;;;7.68;5.82;;;8.80;99.90;;;;;;5067580;28;20048;-75
2022/10/31 05:04:59;;;;;;;7.22;5.45;;;8.60;99.90;;;;;;5065585;28;20040;-75
2022/10/31 05:07:25;;;;;;;15.75;6.60;;;8.50;99.90;;;;;;5075852;28;20171;-75
2022/10/31 05:09:50;;;;;;;8.82;5.95;;;8.40;99.90;;;;;;5048258;28;20042;-75
2022/10/31 05:12:16;;;;;;;9.52;6.57;;;8.40;99.90;;;;;;5079604;28;20076;-75
2022/10/31 05:14:42;;;;;;;7.30;5.80;;;8.40;99.90;;;;;;5074065;28;20048;-75
2022/10/31 05:17:07;;;;;;;8.07;6.07;;;8.40;99.90;;;;;;5070263;28;20097;-75
2022/10/31 05:19:33;;;;;;;6.95;5.28;;;8.40;99.90;;;;;;5085594;28;20040;-75
2022/10/31 05:21:58;;;;;;;6.50;5.05;;;8.40;99.90;;;;;;5093417;28;20055;-75
2022/10/31 05:24:24;;;;;;;7.95;5.43;;;8.50;99.90;;;;;;5064299;28;20044;-75
2022/10/31 05:26:50;;;;;;;7.93;5.70;;;8.60;99.90;;;;;;5091791;28;20109;-75
2022/10/31 05:29:15;;;;;;;6.82;5.55;;;8.60;99.90;;;;;;5074239;28;20047;-75
2022/10/31 05:31:41;;;;;;;7.57;5.70;;;8.60;99.90;;;;;;5069167;28;20051;-76
2022/10/31 05:34:07;;;;;;;6.18;5.03;;;8.40;99.90;;;;;;5053224;28;20056;-70
2022/10/31 05:36:32;;;;;;;5.50;3.92;;;8.30;99.90;;;;;;5067231;28;20036;-70
2022/10/31 05:38:58;;;;;;;3.45;3.15;;;8.10;99.90;;;;;;5069164;28;20051;-70
2022/10/31 05:41:24;;;;;;;6.25;3.83;;;8.00;99.90;;;;;;5077862;28;20048;-69
2022/10/31 05:43:49;;;;;;;5.38;3.97;;;8.00;99.90;;;;;;5084657;28;20123;-70
2022/10/31 05:46:15;;;;;;;5.75;4.78;;;7.90;99.90;;;;;;5076007;28;20048;-71
2022/10/31 05:48:41;;;;;;;7.97;5.38;;;7.90;99.90;;;;;;5081218;28;20045;-70
2022/10/31 05:51:06;;;;;;;8.40;5.15;;;7.90;99.90;;;;;;5082486;28;20047;-71
2022/10/31 05:53:32;;;;;;;4.97;4.30;;;7.90;99.90;;;;;;5063861;28;20040;-71
2022/10/31 05:55:58;;;;;;;6.10;4.35;;;7.80;99.90;;;;;;5082471;28;20098;-71
2022/10/31 05:58:23;;;;;;;7.57;5.63;;;7.70;99.90;;;;;;5080428;28;20047;-71
2022/10/31 06:00:49;;;;;;;39.50;9.15;;;7.70;99.90;;;;;;5063990;28;20048;-71
2022/10/31 06:03:15;;;;;;;69.70;9.38;;;7.60;99.90;;;;;;5079308;28;20049;-72
2022/10/31 06:05:40;;;;;;;7.85;5.60;;;7.70;99.90;;;;;;5065229;28;20052;-77
2022/10/31 06:08:06;;;;;;;17.60;6.22;;;7.70;99.90;;;;;;5048387;28;20086;-76
2022/10/31 06:10:32;;;;;;;8.95;6.40;;;7.80;99.90;;;;;;5065670;28;20116;-76
2022/10/31 06:12:57;;;;;;;14.00;7.18;;;7.80;99.90;;;;;;5066581;28;20055;-74
2022/10/31 06:15:23;;;;;;;9.73;6.70;;;7.80;99.90;;;;;;5070493;28;20119;-75
2022/10/31 06:18:01;;;;;;;7.93;6.43;;;8.00;99.90;;;;;;5070212;28;20096;-73
2022/10/31 06:20:27;;;;;;;10.00;7.13;;;8.10;99.90;;;;;;5069109;28;20285;-71
2022/10/31 06:22:53;;;;;;;9.02;6.85;;;8.10;99.90;;;;;;5067430;28;20119;-72
2022/10/31 06:25:18;;;;;;;10.23;7.40;;;8.00;99.90;;;;;;5052934;28;20066;-72
2022/10/31 06:27:44;;;;;;;11.82;9.52;;;7.90;99.90;;;;;;5084823;28;20055;-72
2022/10/31 06:30:10;;;;;;;9.07;7.43;;;7.90;99.90;;;;;;5086373;28;20036;-72
2022/10/31 06:32:36;;;;;;;36.92;11.32;;;7.90;99.90;;;;;;5043413;28;20052;-72
2022/10/31 06:35:01;;;;;;;15.82;7.80;;;7.90;99.90;;;;;;5063222;28;20128;-72
2022/10/31 06:37:27;;;;;;;13.23;8.38;;;7.90;99.90;;;;;;5067596;28;20051;-71
2022/10/31 06:39:53;;;;;;;9.57;7.13;;;7.80;99.90;;;;;;5064973;28;20049;-72
2022/10/31 06:42:18;;;;;;;12.23;8.32;;;7.80;99.90;;;;;;5034646;28;20049;-71
2022/10/31 06:44:44;;;;;;;7.65;6.70;;;7.60;99.90;;;;;;5040842;28;20053;-70
2022/10/31 06:47:10;;;;;;;7.55;6.72;;;7.60;99.90;;;;;;5035846;28;20094;-70
2022/10/31 06:49:35;;;;;;;8.73;5.75;;;7.60;99.90;;;;;;5053612;28;20330;-70
2022/10/31 06:52:01;;;;;;;11.45;6.65;;;7.80;99.90;;;;;;5073571;28;20422;-70
2022/10/31 06:54:27;;;;;;;9.20;6.25;;;7.90;99.90;;;;;;5042512;28;20045;-71
2022/10/31 06:56:52;;;;;;;7.25;5.63;;;8.00;99.90;;;;;;5060904;28;20112;-71
2022/10/31 06:59:19;;;;;;;5.82;4.88;;;8.00;99.90;;;;;;5052703;28;20052;-70
2022/10/31 07:01:44;;;;;;;8.75;5.57;;;8.00;99.90;;;;;;5057974;28;20052;-70
2022/10/31 07:04:11;;;;;;;8.00;5.45;;;8.00;99.90;;;;;;5068219;28;20048;-69
2022/10/31 07:06:37;;;;;;;9.70;5.90;;;7.90;99.90;;;;;;5061853;28;20075;-70
2022/10/31 07:09:03;;;;;;;7.43;5.80;;;7.90;99.90;;;;;;5063429;28;20072;-70
2022/10/31 07:11:29;;;;;;;11.23;6.00;;;7.90;99.90;;;;;;5054227;28;20064;-70
2022/10/31 07:13:54;;;;;;;19.60;6.43;;;7.80;99.90;;;;;;5056171;28;20048;-70
2022/10/31 07:16:20;;;;;;;15.95;6.50;;;7.80;99.90;;;;;;5051706;28;20033;-71
2022/10/31 07:18:45;;;;;;;29.70;6.72;;;7.80;99.90;;;;;;5061447;28;20571;-70
2022/10/31 07:21:11;;;;;;;14.15;6.88;;;7.70;99.90;;;;;;5057756;28;20044;-71
2022/10/31 07:23:37;;;;;;;19.60;5.72;;;7.70;99.90;;;;;;5066121;28;20142;-70
2022/10/31 07:26:02;;;;;;;23.33;6.22;;;7.70;99.90;;;;;;5081077;28;20119;-71
2022/10/31 07:28:28;;;;;;;6.68;6.00;;;7.70;99.90;;;;;;5054691;28;20119;-70
2022/10/31 07:30:56;;;;;;;16.38;5.97;;;7.70;99.90;;;;;;5041136;28;20661;-68
2022/10/31 07:33:23;;;;;;;7.18;5.53;;;7.70;99.90;;;;;;5042961;28;20130;-68
2022/10/31 07:35:48;;;;;;;6.53;5.93;;;7.70;99.90;;;;;;5032805;28;20077;-68
2022/10/31 07:38:14;;;;;;;8.07;6.30;;;7.70;99.90;;;;;;5039059;28;20057;-67
2022/10/31 07:40:41;;;;;;;11.18;6.28;;;7.80;99.90;;;;;;5060830;28;20054;-68
2022/10/31 07:43:08;;;;;;;38.33;9.85;;;7.80;99.90;;;;;;5067024;28;20171;-67
2022/10/31 07:45:33;;;;;;;27.10;9.52;;;7.90;99.90;;;;;;5047843;28;20040;-67
2022/10/31 07:47:59;;;;;;;31.52;10.80;;;8.10;99.90;;;;;;5037335;28;20064;-68
2022/10/31 07:50:27;;;;;;;42.42;11.27;;;8.20;99.90;;;;;;5060886;28;20540;-68
2022/10/31 07:53:01;;;;;;;27.27;11.00;;;8.40;99.90;;;;;;5073264;28;20036;-68
2022/10/31 07:55:27;;;;;;;39.47;12.50;;;8.50;99.90;;;;;;5060341;28;20041;-68
2022/10/31 07:58:00;;;;;;;59.05;14.40;;;8.60;99.90;;;;;;5072109;28;20041;-67
2022/10/31 08:00:26;;;;;;;29.42;12.82;;;8.80;99.90;;;;;;5071773;28;20047;-67
2022/10/31 08:03:02;;;;;;;34.17;13.45;;;8.90;99.90;;;;;;5058485;28;20040;-68
2022/10/31 08:05:29;;;;;;;41.72;15.00;;;9.10;99.90;;;;;;5067561;28;20053;-67
2022/10/31 08:07:55;;;;;;;22.08;14.07;;;9.10;99.90;;;;;;5058706;28;20044;-68
2022/10/31 08:10:22;;;;;;;20.63;14.05;;;9.20;99.90;;;;;;5054699;28;20048;-67
2022/10/31 08:12:54;;;;;;;23.60;14.00;;;9.40;99.90;;;;;;5042538;28;20255;-68
2022/10/31 08:15:19;;;;;;;22.95;14.93;;;9.50;99.90;;;;;;5071526;28;20051;-68
2022/10/31 08:17:45;;;;;;;23.90;16.13;;;9.50;99.90;;;;;;5081769;28;20044;-68
2022/10/31 08:20:11;;;;;;;28.73;15.35;;;9.60;99.90;;;;;;5060577;28;20056;-67
2022/10/31 08:22:36;;;;;;;18.77;14.50;;;9.80;99.90;;;;;;5087320;28;20048;-67
2022/10/31 08:25:02;;;;;;;35.63;15.32;;;9.80;99.90;;;;;;5061192;28;20048;-67
2022/10/31 08:27:28;;;;;;;21.02;15.13;;;10.00;99.90;;;;;;5070005;28;20100;-67
2022/10/31 08:29:53;;;;;;;20.23;15.50;;;10.10;99.90;;;;;;5052660;28;20082;-67
2022/10/31 08:32:19;;;;;;;24.88;14.57;;;10.20;99.90;;;;;;5031113;28;20036;-67
2022/10/31 08:34:45;;;;;;;20.20;15.65;;;10.20;99.90;;;;;;5071494;28;20125;-68
2022/10/31 08:37:10;;;;;;;19.85;14.52;;;10.30;99.90;;;;;;5060742;28;20036;-67
2022/10/31 08:39:36;;;;;;;18.90;15.75;;;10.30;99.90;;;;;;5048398;28;20060;-67
2022/10/31 08:42:02;;;;;;;22.98;16.92;;;10.50;99.90;;;;;;5074796;28;20135;-66
2022/10/31 08:44:27;;;;;;;20.90;16.23;;;10.50;99.90;;;;;;5047980;28;20055;-67
2022/10/31 08:46:53;;;;;;;20.67;15.80;;;10.60;99.90;;;;;;5058410;28;20048;-67
2022/10/31 08:49:19;;;;;;;21.42;17.50;;;10.60;99.90;;;;;;5048064;28;20049;-67
2022/10/31 08:51:48;;;;;;;21.27;16.25;;;10.80;99.90;;;;;;5060747;28;20186;-67
2022/10/31 08:54:13;;;;;;;20.85;16.10;;;10.90;99.90;;;;;;5047242;28;20057;-67
2022/10/31 08:56:39;;;;;;;24.17;17.77;;;10.90;99.90;;;;;;5060011;28;20060;-67
2022/10/31 08:59:04;;;;;;;22.55;17.33;;;11.10;99.90;;;;;;5051250;28;20350;-67
2022/10/31 09:01:30;;;;;;;24.60;18.05;;;11.20;99.90;;;;;;5064238;28;20054;-67
2022/10/31 09:03:56;;;;;;;23.25;18.02;;;11.20;99.90;;;;;;5053234;28;20049;-68
2022/10/31 09:06:21;;;;;;;30.30;18.42;;;11.30;99.90;;;;;;5075821;28;20036;-68
2022/10/31 09:08:47;;;;;;;24.42;18.27;;;11.30;99.90;;;;;;5046892;28;20310;-68
2022/10/31 09:11:13;;;;;;;29.13;20.92;;;11.40;99.90;;;;;;5048020;28;20040;-68
2022/10/31 09:13:38;;;;;;;29.77;21.63;;;11.50;99.90;;;;;;5065798;28;20087;-67
2022/10/31 09:16:04;;;;;;;29.20;21.05;;;11.60;99.90;;;;;;5044329;28;20516;-68
2022/10/31 09:18:31;;;;;;;30.40;21.25;;;11.50;99.90;;;;;;5066136;28;20119;-68
2022/10/31 09:20:59;;;;;;;29.52;21.75;;;11.60;99.90;;;;;;5057633;28;20287;-68
2022/10/31 09:23:25;;;;;;;26.63;22.20;;;11.70;99.90;;;;;;5026192;28;20052;-68
2022/10/31 09:25:52;;;;;;;28.52;21.08;;;11.70;99.90;;;;;;5041226;28;20045;-67
2022/10/31 09:28:20;;;;;;;26.27;21.05;;;11.80;99.90;;;;;;5033677;28;20053;-68
2022/10/31 09:30:48;;;;;;;27.08;21.05;;;11.80;99.90;;;;;;5061784;28;20593;-68
2022/10/31 09:33:14;;;;;;;27.90;22.15;;;11.90;99.90;;;;;;5021547;28;20056;-68
2022/10/31 09:35:41;;;;;;;28.40;21.83;;;11.90;99.90;;;;;;5052845;28;20048;-68
2022/10/31 09:38:14;;;;;;;29.92;22.13;;;12.00;99.90;;;;;;5047694;28;20047;-68
2022/10/31 09:40:50;;;;;;;36.53;24.42;;;12.00;99.90;;;;;;5063259;28;20055;-68
2022/10/31 09:43:28;;;;;;;32.78;23.00;;;12.10;99.90;;;;;;5029120;28;20053;-68
2022/10/31 09:46:21;;;;;;;31.42;23.00;;;12.20;99.90;;;;;;5054523;28;20033;-68
2022/10/31 09:49:07;;;;;;;34.38;23.45;;;12.30;99.90;;;;;;5030345;28;20813;-68
2022/10/31 09:51:40;;;;;;;38.22;24.83;;;12.30;99.90;;;;;;5039874;28;20139;-67
2022/10/31 09:54:44;;;;;;;35.40;24.20;;;12.40;99.90;;;;;;5038701;28;20052;-67
2022/10/31 09:57:18;;;;;;;32.55;22.85;;;12.50;99.90;;;;;;5043368;28;20300;-67
2022/10/31 09:59:46;;;;;;;34.35;23.45;;;12.60;99.90;;;;;;5036471;28;20049;-67
2022/10/31 10:02:18;;;;;;;36.15;24.58;;;12.60;99.90;;;;;;5046624;28;20037;-67
2022/10/31 10:04:52;;;;;;;37.60;25.95;;;12.70;99.90;;;;;;5025277;28;20053;-67
2022/10/31 10:07:32;;;;;;;37.83;25.88;;;12.70;99.90;;;;;;5018224;28;20041;-68
2022/10/31 10:09:59;;;;;;;32.80;23.63;;;12.90;99.90;;;;;;5028499;28;20279;-67
2022/10/31 10:12:56;;;;;;;37.53;24.40;;;12.90;99.90;;;;;;5038511;28;20045;-67
2022/10/31 10:15:25;;;;;;;35.55;24.45;;;13.00;99.90;;;;;;5049438;28;20056;-67
2022/10/31 10:18:22;;;;;;;35.70;23.95;;;13.00;99.90;;;;;;5043584;28;20451;-68
2022/10/31 10:21:13;;;;;;;33.75;23.20;;;13.10;99.90;;;;;;5050670;28;20531;-68
2022/10/31 10:24:13;;;;;;;32.38;22.70;;;13.20;99.90;;;;;;5035986;28;20044;-68
2022/10/31 10:26:46;;;;;;;33.72;24.15;;;13.20;99.90;;;;;;5067918;28;20064;-68
2022/10/31 10:29:27;;;;;;;33.05;23.38;;;13.40;99.90;;;;;;5033174;28;20051;-68
2022/10/31 10:31:54;;;;;;;31.92;22.55;;;13.50;99.90;;;;;;5064536;28;20096;-67
2022/10/31 10:34:25;;;;;;;33.25;23.25;;;13.70;99.90;;;;;;5020557;28;20052;-68
2022/10/31 10:37:02;;;;;;;32.47;22.05;;;13.80;99.90;;;;;;5046991;28;20037;-67
2022/10/31 10:40:21;;;;;;;30.65;20.98;;;13.90;99.90;;;;;;5052557;28;20048;-67
2022/10/31 10:43:18;;;;;;;30.15;20.63;;;14.00;99.90;;;;;;5051004;28;20052;-67
2022/10/31 10:48:42;;;;;;;26.47;19.20;;;14.20;99.90;;;;;;5054624;28;20092;-68
2022/10/31 10:51:20;;;;;;;27.75;19.90;;;14.30;99.90;;;;;;5050319;28;20384;-68
2022/10/31 10:54:15;;;;;;;27.42;19.67;;;14.40;99.90;;;;;;5057401;28;20056;-68
2022/10/31 10:57:14;;;;;;;25.48;18.60;;;14.50;99.90;;;;;;5057416;28;20515;-68
2022/10/31 10:59:39;;;;;;;26.88;19.13;;;14.50;99.90;;;;;;5062280;28;20479;-67
2022/10/31 11:02:18;;;;;;;27.23;18.38;;;14.60;99.90;;;;;;5091866;28;20037;-67
2022/10/31 11:04:47;;;;;;;28.98;19.08;;;14.60;99.90;;;;;;5042445;28;20106;-67
2022/10/31 11:07:13;;;;;;;28.33;18.25;;;14.70;99.90;;;;;;5033925;28;20401;-67
2022/10/31 11:09:38;;;;;;;29.20;19.27;;;14.80;99.90;;;;;;5071967;28;20052;-67
2022/10/31 11:12:30;;;;;;;24.60;18.67;;;14.80;99.90;;;;;;5069334;28;20135;-67
2022/10/31 11:15:00;;;;;;;28.40;18.33;;;14.80;99.90;;;;;;5053334;28;20076;-67
2022/10/31 11:17:37;;;;;;;24.70;17.27;;;14.90;99.90;;;;;;5054498;28;20211;-67
2022/10/31 11:20:12;;;;;;;27.35;17.67;;;14.90;99.90;;;;;;5059639;28;20059;-67
2022/10/31 11:22:38;;;;;;;27.70;18.25;;;15.00;99.90;;;;;;5055513;28;20112;-67
2022/10/31 11:25:23;;;;;;;27.70;18.63;;;15.10;99.90;;;;;;5069896;28;20052;-68
2022/10/31 11:28:08;;;;;;;29.40;19.55;;;15.10;99.90;;;;;;5060677;28;20045;-67
2022/10/31 11:30:47;;;;;;;28.23;18.40;;;15.10;99.90;;;;;;5075380;28;20063;-67
2022/10/31 11:33:26;;;;;;;30.30;19.30;;;15.10;99.90;;;;;;5028765;28;20061;-68
2022/10/31 11:35:53;;;;;;;28.63;19.40;;;15.10;99.90;;;;;;5046714;28;20331;-67
2022/10/31 11:38:22;;;;;;;27.25;19.10;;;15.00;99.90;;;;;;5079399;28;20044;-67
2022/10/31 11:40:59;;;;;;;27.85;17.70;;;15.00;99.90;;;;;;5055099;28;20051;-68
2022/10/31 11:43:27;;;;;;;27.85;16.90;;;15.00;99.90;;;;;;5058803;28;20048;-67
2022/10/31 11:45:53;;;;;;;24.98;17.17;;;15.00;99.90;;;;;;5045852;28;20048;-66
2022/10/31 11:48:23;;;;;;;24.35;17.15;;;15.00;99.90;;;;;;5048651;28;20048;-66
2022/10/31 11:50:57;;;;;;;26.83;17.10;;;15.00;99.90;;;;;;5051241;28;20481;-67
2022/10/31 11:53:29;;;;;;;25.15;16.83;;;15.00;99.90;;;;;;5061615;28;20562;-67
2022/10/31 11:56:21;;;;;;;26.08;17.33;;;15.00;99.90;;;;;;5040785;28;20045;-66
2022/10/31 11:59:25;;;;;;;24.05;16.73;;;15.00;99.90;;;;;;5033587;28;20162;-67
2022/10/31 12:01:53;;;;;;;26.30;15.77;;;15.10;99.90;;;;;;5041045;28;20132;-66
2022/10/31 12:04:26;;;;;;;22.25;15.48;;;15.10;99.90;;;;;;5049536;28;20049;-66
2022/10/31 12:06:53;;;;;;;24.58;17.30;;;15.20;99.90;;;;;;5044476;28;20041;-67
2022/10/31 12:09:19;;;;;;;28.55;17.58;;;15.30;99.90;;;;;;5027142;28;20068;-66
2022/10/31 12:12:23;;;;;;;24.13;16.63;;;15.40;99.90;;;;;;5048335;28;20036;-66
2022/10/31 12:15:21;;;;;;;27.08;17.05;;;15.50;99.90;;;;;;5050752;28;20047;-67
2022/10/31 12:18:11;;;;;;;27.20;17.85;;;15.50;99.90;;;;;;5041563;28;20310;-67
2022/10/31 12:20:43;;;;;;;29.13;16.02;;;15.60;99.90;;;;;;5040438;28;20385;-66
2022/10/31 12:23:28;;;;;;;22.67;16.08;;;15.60;99.90;;;;;;5059372;28;20083;-66
2022/10/31 12:26:20;;;;;;;24.70;16.63;;;15.60;99.90;;;;;;5049347;28;20045;-66
2022/10/31 12:28:55;;;;;;;24.50;16.75;;;15.60;99.90;;;;;;5054721;28;20372;-67
2022/10/31 12:31:33;;;;;;;33.08;18.42;;;15.60;99.90;;;;;;5053245;28;20052;-67
2022/10/31 12:34:36;;;;;;;24.20;15.80;;;15.60;99.90;;;;;;5048462;28;20496;-67
2022/10/31 12:37:39;;;;;;;24.00;15.82;;;15.70;99.90;;;;;;5075233;28;20041;-67
2022/10/31 12:40:46;;;;;;;26.42;16.08;;;15.70;99.90;;;;;;5065664;28;20376;-67
2022/10/31 12:43:50;;;;;;;25.80;16.30;;;15.60;99.90;;;;;;5035729;28;20610;-67
2022/10/31 12:46:43;;;;;;;22.38;15.77;;;15.60;99.90;;;;;;5035801;28;20048;-66
2022/10/31 12:49:20;;;;;;;29.50;17.35;;;15.60;99.90;;;;;;5060656;28;20611;-66
2022/10/31 12:51:49;;;;;;;27.35;16.88;;;15.60;99.90;;;;;;5057743;28;20107;-67
2022/10/31 12:54:36;;;;;;;28.20;17.90;;;15.60;99.90;;;;;;5055609;28;20336;-67
2022/10/31 12:57:16;;;;;;;25.55;17.02;;;15.70;99.90;;;;;;5064877;28;20058;-67
2022/10/31 12:59:48;;;;;;;28.58;18.05;;;15.70;99.90;;;;;;5057733;28;20140;-67